sensor_id;sensor_type;location;lat;lon;timestamp;pressure;altitude;pressure_sealevel;temperature;humidity
75627;BME280;67372;49.404;11.034;2023-04-01T00:01:42;96694.38;;;8.53;76.89
75627;BME280;67372;49.404;11.034;2023-04-01T00:04:08;96691.00;;;8.58;76.81
75627;BME280;67372;49.404;11.034;2023-04-01T00:06:35;96697.09;;;8.58;76.02
75627;BME280;67372;49.404;11.034;2023-04-01T00:09:01;96693.97;;;8.61;76.08
75627;BME280;67372;49.404;11.034;2023-04-01T00:11:27;96694.78;;;8.62;76.50
75627;BME280;67372;49.404;11.034;2023-04-01T00:13:55;96693.47;;;8.65;75.86
75627;BME280;67372;49.404;11.034;2023-04-01T00:16:22;96700.00;;;8.74;75.14
75627;BME280;67372;49.404;11.034;2023-04-01T00:18:50;96690.97;;;8.75;75.81
75627;BME280;67372;49.404;11.034;2023-04-01T00:21:16;96685.19;;;8.78;76.10
75627;BME280;67372;49.404;11.034;2023-04-01T00:23:43;96680.75;;;8.83;74.82
75627;BME280;67372;49.404;11.034;2023-04-01T00:26:09;96685.81;;;8.85;74.80
75627;BME280;67372;49.404;11.034;2023-04-01T00:28:35;96680.91;;;8.93;74.76
75627;BME280;67372;49.404;11.034;2023-04-01T00:31:06;96685.41;;;8.93;74.53
75627;BME280;67372;49.404;11.034;2023-04-01T00:33:32;96681.22;;;8.97;74.07
75627;BME280;67372;49.404;11.034;2023-04-01T00:36:13;96676.13;;;8.96;74.18
75627;BME280;67372;49.404;11.034;2023-04-01T00:38:41;96684.69;;;8.98;74.48
75627;BME280;67372;49.404;11.034;2023-04-01T00:41:08;96680.75;;;9.00;74.28
75627;BME280;67372;49.404;11.034;2023-04-01T00:43:35;96680.97;;;8.99;74.08
75627;BME280;67372;49.404;11.034;2023-04-01T00:46:01;96680.91;;;8.93;73.89
75627;BME280;67372;49.404;11.034;2023-04-01T01:04:46;96686.38;;;9.04;72.86
75627;BME280;67372;49.404;11.034;2023-04-01T01:07:32;96683.16;;;9.02;72.98
75627;BME280;67372;49.404;11.034;2023-04-01T01:10:32;96682.13;;;9.03;73.42
75627;BME280;67372;49.404;11.034;2023-04-01T01:13:18;96679.16;;;8.99;73.60
75627;BME280;67372;49.404;11.034;2023-04-01T01:18:21;96674.78;;;8.93;72.81
75627;BME280;67372;49.404;11.034;2023-04-01T01:29:26;96678.47;;;8.92;72.71
75627;BME280;67372;49.404;11.034;2023-04-01T01:37:20;96666.78;;;8.93;72.55
75627;BME280;67372;49.404;11.034;2023-04-01T01:39:52;96675.44;;;9.00;72.47
75627;BME280;67372;49.404;11.034;2023-04-01T01:42:22;96673.88;;;9.04;72.32
75627;BME280;67372;49.404;11.034;2023-04-01T01:44:50;96668.00;;;9.02;72.13
75627;BME280;67372;49.404;11.034;2023-04-01T01:47:19;96666.97;;;9.03;71.67
75627;BME280;67372;49.404;11.034;2023-04-01T01:49:47;96668.06;;;9.07;71.82
75627;BME280;67372;49.404;11.034;2023-04-01T01:52:14;96667.84;;;9.09;71.76
75627;BME280;67372;49.404;11.034;2023-04-01T01:55:23;96661.47;;;9.10;71.17
75627;BME280;67372;49.404;11.034;2023-04-01T01:57:50;96664.69;;;9.12;71.14
75627;BME280;67372;49.404;11.034;2023-04-01T02:00:17;96653.97;;;9.07;71.72
75627;BME280;67372;49.404;11.034;2023-04-01T02:02:46;96656.38;;;9.08;71.25
75627;BME280;67372;49.404;11.034;2023-04-01T02:05:20;96655.59;;;9.08;71.26
75627;BME280;67372;49.404;11.034;2023-04-01T02:07:55;96653.16;;;9.06;71.75
75627;BME280;67372;49.404;11.034;2023-04-01T02:10:25;96658.19;;;9.03;71.96
75627;BME280;67372;49.404;11.034;2023-04-01T02:26:23;96667.34;;;8.95;71.81
75627;BME280;67372;49.404;11.034;2023-04-01T02:28:52;96663.09;;;8.94;71.89
75627;BME280;67372;49.404;11.034;2023-04-01T02:31:20;96674.03;;;8.98;71.59
75627;BME280;67372;49.404;11.034;2023-04-01T02:33:47;96667.44;;;9.00;71.44
75627;BME280;67372;49.404;11.034;2023-04-01T02:36:15;96673.09;;;9.04;71.46
75627;BME280;67372;49.404;11.034;2023-04-01T02:38:44;96669.38;;;9.05;71.13
75627;BME280;67372;49.404;11.034;2023-04-01T02:41:11;96669.38;;;9.05;71.03
75627;BME280;67372;49.404;11.034;2023-04-01T02:43:37;96670.44;;;9.04;72.18
75627;BME280;67372;49.404;11.034;2023-04-01T02:46:06;96664.94;;;8.93;71.75
75627;BME280;67372;49.404;11.034;2023-04-01T03:07:26;96692.81;;;8.74;71.65
75627;BME280;67372;49.404;11.034;2023-04-01T03:09:52;96693.19;;;8.78;71.70
75627;BME280;67372;49.404;11.034;2023-04-01T03:12:19;96687.38;;;8.81;71.82
75627;BME280;67372;49.404;11.034;2023-04-01T03:14:45;96688.41;;;8.80;72.01
75627;BME280;67372;49.404;11.034;2023-04-01T03:17:11;96696.94;;;8.82;72.27
75627;BME280;67372;49.404;11.034;2023-04-01T03:19:38;96682.84;;;8.81;72.02
75627;BME280;67372;49.404;11.034;2023-04-01T03:24:47;96691.72;;;8.87;72.03
75627;BME280;67372;49.404;11.034;2023-04-01T03:27:14;96691.72;;;8.87;72.60
75627;BME280;67372;49.404;11.034;2023-04-01T03:29:41;96704.44;;;8.85;71.96
75627;BME280;67372;49.404;11.034;2023-04-01T03:32:07;96697.28;;;8.85;71.93
75627;BME280;67372;49.404;11.034;2023-04-01T03:34:33;96697.50;;;8.84;72.17
75627;BME280;67372;49.404;11.034;2023-04-01T03:37:00;96693.00;;;8.84;71.69
75627;BME280;67372;49.404;11.034;2023-04-01T03:39:26;96692.75;;;8.86;72.55
75627;BME280;67372;49.404;11.034;2023-04-01T03:41:52;96696.78;;;8.88;72.34
75627;BME280;67372;49.404;11.034;2023-04-01T03:44:19;96706.13;;;8.91;71.75
75627;BME280;67372;49.404;11.034;2023-04-01T03:46:45;96715.47;;;8.93;71.76
75627;BME280;67372;49.404;11.034;2023-04-01T03:49:11;96710.47;;;8.97;71.57
75627;BME280;67372;49.404;11.034;2023-04-01T03:51:39;96715.78;;;8.97;71.86
75627;BME280;67372;49.404;11.034;2023-04-01T03:54:05;96727.22;;;8.98;71.49
75627;BME280;67372;49.404;11.034;2023-04-01T03:56:32;96712.81;;;8.93;71.64
75627;BME280;67372;49.404;11.034;2023-04-01T03:59:03;96707.50;;;8.93;71.77
75627;BME280;67372;49.404;11.034;2023-04-01T04:01:29;96718.69;;;8.96;70.93
75627;BME280;67372;49.404;11.034;2023-04-01T04:03:56;96718.69;;;8.96;71.52
75627;BME280;67372;49.404;11.034;2023-04-01T04:06:23;96714.66;;;8.93;71.33
75627;BME280;67372;49.404;11.034;2023-04-01T04:08:50;96718.38;;;8.92;70.89
75627;BME280;67372;49.404;11.034;2023-04-01T04:11:17;96733.75;;;8.90;70.98
75627;BME280;67372;49.404;11.034;2023-04-01T04:13:44;96724.25;;;8.94;70.25
75627;BME280;67372;49.404;11.034;2023-04-01T04:16:11;96723.94;;;8.90;70.94
75627;BME280;67372;49.404;11.034;2023-04-01T04:18:37;96723.19;;;8.95;70.67
75627;BME280;67372;49.404;11.034;2023-04-01T04:21:04;96725.88;;;8.95;70.96
75627;BME280;67372;49.404;11.034;2023-04-01T04:23:30;96723.53;;;8.99;70.79
75627;BME280;67372;49.404;11.034;2023-04-01T04:25:58;96717.19;;;9.00;71.03
75627;BME280;67372;49.404;11.034;2023-04-01T04:28:25;96730.69;;;8.98;71.41
75627;BME280;67372;49.404;11.034;2023-04-01T04:30:53;96719.66;;;8.89;71.05
75627;BME280;67372;49.404;11.034;2023-04-01T04:33:20;96731.34;;;8.88;71.22
75627;BME280;67372;49.404;11.034;2023-04-01T04:35:47;96723.31;;;8.83;71.65
75627;BME280;67372;49.404;11.034;2023-04-01T04:38:14;96715.63;;;8.87;72.18
75627;BME280;67372;49.404;11.034;2023-04-01T04:40:42;96721.69;;;8.82;71.80
75627;BME280;67372;49.404;11.034;2023-04-01T04:43:14;96725.97;;;8.83;71.92
75627;BME280;67372;49.404;11.034;2023-04-01T04:45:41;96727.56;;;8.84;71.72
75627;BME280;67372;49.404;11.034;2023-04-01T04:48:09;96736.19;;;8.91;72.42
75627;BME280;67372;49.404;11.034;2023-04-01T04:50:35;96732.09;;;8.84;72.42
75627;BME280;67372;49.404;11.034;2023-04-01T04:53:02;96725.31;;;8.76;72.69
75627;BME280;67372;49.404;11.034;2023-04-01T04:55:29;96727.72;;;8.78;73.16
75627;BME280;67372;49.404;11.034;2023-04-01T04:57:55;96726.59;;;8.74;72.89
75627;BME280;67372;49.404;11.034;2023-04-01T05:00:21;96730.03;;;8.74;72.59
75627;BME280;67372;49.404;11.034;2023-04-01T05:02:48;96717.81;;;8.73;72.64
75627;BME280;67372;49.404;11.034;2023-04-01T05:05:14;96727.88;;;8.71;72.90
75627;BME280;67372;49.404;11.034;2023-04-01T05:07:41;96727.06;;;8.71;73.22
75627;BME280;67372;49.404;11.034;2023-04-01T05:10:07;96730.53;;;8.71;73.50
75627;BME280;67372;49.404;11.034;2023-04-01T05:12:34;96726.81;;;8.72;72.79
75627;BME280;67372;49.404;11.034;2023-04-01T05:15:00;96730.53;;;8.71;73.15
75627;BME280;67372;49.404;11.034;2023-04-01T05:17:27;96730.84;;;8.75;73.26
75627;BME280;67372;49.404;11.034;2023-04-01T05:19:53;96739.97;;;8.79;72.93
75627;BME280;67372;49.404;11.034;2023-04-01T05:22:20;96733.63;;;8.80;72.86
75627;BME280;67372;49.404;11.034;2023-04-01T05:32:45;96725.97;;;8.83;72.44
75627;BME280;67372;49.404;11.034;2023-04-01T05:51:37;96728.75;;;8.93;71.79
75627;BME280;67372;49.404;11.034;2023-04-01T05:54:05;96725.88;;;8.95;71.30
75627;BME280;67372;49.404;11.034;2023-04-01T05:56:31;96724.56;;;8.98;70.98
75627;BME280;67372;49.404;11.034;2023-04-01T05:58:57;96722.25;;;9.01;71.16
75627;BME280;67372;49.404;11.034;2023-04-01T06:06:47;96723.28;;;9.17;70.75
75627;BME280;67372;49.404;11.034;2023-04-01T06:09:17;96733.97;;;9.22;70.91
75627;BME280;67372;49.404;11.034;2023-04-01T06:23:32;96724.63;;;9.36;69.39
75627;BME280;67372;49.404;11.034;2023-04-01T06:29:11;96732.25;;;9.49;68.29
75627;BME280;67372;49.404;11.034;2023-04-01T06:32:12;96737.34;;;9.51;68.88
75627;BME280;67372;49.404;11.034;2023-04-01T06:43:45;96720.94;;;9.81;67.09
75627;BME280;67372;49.404;11.034;2023-04-01T06:48:58;96720.19;;;10.07;67.54
75627;BME280;67372;49.404;11.034;2023-04-01T06:51:38;96729.25;;;10.28;67.35
75627;BME280;67372;49.404;11.034;2023-04-01T06:56:37;96720.28;;;10.39;64.93
75627;BME280;67372;49.404;11.034;2023-04-01T06:59:32;96723.16;;;10.60;64.44
75627;BME280;67372;49.404;11.034;2023-04-01T07:04:40;96721.75;;;10.84;64.10
75627;BME280;67372;49.404;11.034;2023-04-01T07:07:27;96721.19;;;10.77;62.96
75627;BME280;67372;49.404;11.034;2023-04-01T07:09:57;96713.72;;;10.79;62.70
75627;BME280;67372;49.404;11.034;2023-04-01T07:15:01;96713.44;;;10.75;62.90
75627;BME280;67372;49.404;11.034;2023-04-01T07:17:36;96708.59;;;10.72;62.93
75627;BME280;67372;49.404;11.034;2023-04-01T07:20:16;96712.91;;;10.79;62.41
75627;BME280;67372;49.404;11.034;2023-04-01T07:22:48;96700.81;;;10.66;63.19
75627;BME280;67372;49.404;11.034;2023-04-01T07:25:17;96703.81;;;10.74;63.11
75627;BME280;67372;49.404;11.034;2023-04-01T07:27:45;96705.81;;;10.89;63.30
75627;BME280;67372;49.404;11.034;2023-04-01T07:30:18;96706.63;;;10.90;61.60
75627;BME280;67372;49.404;11.034;2023-04-01T07:32:51;96710.13;;;10.95;61.91
75627;BME280;67372;49.404;11.034;2023-04-01T07:35:27;96717.31;;;10.95;61.47
75627;BME280;67372;49.404;11.034;2023-04-01T07:41:30;96707.63;;;11.21;61.17
75627;BME280;67372;49.404;11.034;2023-04-01T07:57:38;96725.22;;;11.17;61.15
75627;BME280;67372;49.404;11.034;2023-04-01T08:35:26;96735.38;;;12.19;57.63
75627;BME280;67372;49.404;11.034;2023-04-01T08:38:01;96740.00;;;12.34;57.79
75627;BME280;67372;49.404;11.034;2023-04-01T08:43:45;96728.16;;;12.20;56.82
75627;BME280;67372;49.404;11.034;2023-04-01T09:22:13;96726.31;;;12.25;56.69
75627;BME280;67372;49.404;11.034;2023-04-01T09:27:56;96726.09;;;12.32;55.75
75627;BME280;67372;49.404;11.034;2023-04-01T09:30:53;96722.56;;;12.26;57.11
75627;BME280;67372;49.404;11.034;2023-04-01T09:34:02;96727.66;;;12.28;55.86
75627;BME280;67372;49.404;11.034;2023-04-01T09:44:37;96731.66;;;12.20;57.62
75627;BME280;67372;49.404;11.034;2023-04-01T09:50:17;96733.25;;;12.16;57.45
75627;BME280;67372;49.404;11.034;2023-04-01T10:01:11;96745.97;;;11.89;58.71
75627;BME280;67372;49.404;11.034;2023-04-01T10:18:27;96750.78;;;11.45;66.68
75627;BME280;67372;49.404;11.034;2023-04-01T10:21:16;96751.28;;;11.42;67.11
75627;BME280;67372;49.404;11.034;2023-04-01T10:27:16;96742.53;;;11.56;68.46
75627;BME280;67372;49.404;11.034;2023-04-01T10:38:13;96742.22;;;11.90;67.95
75627;BME280;67372;49.404;11.034;2023-04-01T10:43:47;96737.47;;;12.02;68.43
75627;BME280;67372;49.404;11.034;2023-04-01T11:17:06;96740.69;;;11.57;71.55
75627;BME280;67372;49.404;11.034;2023-04-01T11:44:27;96744.22;;;11.25;70.48
75627;BME280;67372;49.404;11.034;2023-04-01T11:49:50;96746.16;;;11.35;70.17
75627;BME280;67372;49.404;11.034;2023-04-01T11:55:28;96751.59;;;11.50;70.32
75627;BME280;67372;49.404;11.034;2023-04-01T11:58:23;96758.50;;;11.41;70.36
75627;BME280;67372;49.404;11.034;2023-04-01T12:17:07;96757.88;;;11.71;71.05
75627;BME280;67372;49.404;11.034;2023-04-01T12:19:51;96760.97;;;12.00;69.44
75627;BME280;67372;49.404;11.034;2023-04-01T12:27:52;96754.06;;;12.09;69.44
75627;BME280;67372;49.404;11.034;2023-04-01T12:30:42;96768.81;;;12.17;68.86
75627;BME280;67372;49.404;11.034;2023-04-01T12:33:35;96768.44;;;11.98;68.94
75627;BME280;67372;49.404;11.034;2023-04-01T12:41:52;96766.75;;;11.82;68.92
75627;BME280;67372;49.404;11.034;2023-04-01T12:44:33;96766.69;;;11.77;69.74
75627;BME280;67372;49.404;11.034;2023-04-01T12:47:17;96760.53;;;11.71;69.25
75627;BME280;67372;49.404;11.034;2023-04-01T12:52:55;96765.56;;;11.62;70.56
75627;BME280;67372;49.404;11.034;2023-04-01T12:55:41;96763.28;;;11.81;70.69
75627;BME280;67372;49.404;11.034;2023-04-01T12:58:39;96763.81;;;11.78;68.39
75627;BME280;67372;49.404;11.034;2023-04-01T13:04:25;96765.63;;;11.73;69.56
75627;BME280;67372;49.404;11.034;2023-04-01T13:10:02;96767.09;;;11.90;69.15
75627;BME280;67372;49.404;11.034;2023-04-01T13:12:50;96764.69;;;11.94;69.00
75627;BME280;67372;49.404;11.034;2023-04-01T13:15:28;96775.66;;;11.97;68.72
75627;BME280;67372;49.404;11.034;2023-04-01T13:18:13;96770.03;;;11.89;68.04
75627;BME280;67372;49.404;11.034;2023-04-01T13:21:07;96771.66;;;11.95;68.61
75627;BME280;67372;49.404;11.034;2023-04-01T13:29:17;96778.75;;;12.32;68.58
75627;BME280;67372;49.404;11.034;2023-04-01T13:32:34;96775.81;;;12.33;67.98
75627;BME280;67372;49.404;11.034;2023-04-01T13:35:41;96780.09;;;12.34;67.39
75627;BME280;67372;49.404;11.034;2023-04-01T13:38:32;96775.84;;;12.43;66.05
75627;BME280;67372;49.404;11.034;2023-04-01T13:43:37;96772.91;;;12.50;65.52
75627;BME280;67372;49.404;11.034;2023-04-01T13:46:38;96773.69;;;12.45;66.23
75627;BME280;67372;49.404;11.034;2023-04-01T13:52:02;96779.84;;;12.51;66.13
75627;BME280;67372;49.404;11.034;2023-04-01T13:54:53;96779.31;;;12.44;64.96
75627;BME280;67372;49.404;11.034;2023-04-01T13:57:52;96792.16;;;12.47;63.95
75627;BME280;67372;49.404;11.034;2023-04-01T14:03:28;96787.63;;;12.47;64.43
75627;BME280;67372;49.404;11.034;2023-04-01T14:06:06;96785.78;;;12.68;64.97
75627;BME280;67372;49.404;11.034;2023-04-01T14:08:40;96792.75;;;12.69;63.68
75627;BME280;67372;49.404;11.034;2023-04-01T14:11:17;96788.75;;;12.72;63.18
75627;BME280;67372;49.404;11.034;2023-04-01T14:13:56;96797.81;;;12.60;61.79
75627;BME280;67372;49.404;11.034;2023-04-01T14:16:50;96791.91;;;12.53;63.66
75627;BME280;67372;49.404;11.034;2023-04-01T14:19:27;96785.66;;;12.27;63.56
75627;BME280;67372;49.404;11.034;2023-04-01T14:27:31;96798.47;;;11.73;64.78
75627;BME280;67372;49.404;11.034;2023-04-01T14:32:57;96794.03;;;11.47;67.42
75627;BME280;67372;49.404;11.034;2023-04-01T14:35:46;96793.13;;;11.31;67.81
75627;BME280;67372;49.404;11.034;2023-04-01T14:44:37;96803.03;;;11.03;67.49
75627;BME280;67372;49.404;11.034;2023-04-01T14:50:17;96806.44;;;10.94;67.51
75627;BME280;67372;49.404;11.034;2023-04-01T14:52:55;96807.84;;;11.06;68.13
75627;BME280;67372;49.404;11.034;2023-04-01T14:58:10;96800.81;;;10.90;68.95
75627;BME280;67372;49.404;11.034;2023-04-01T15:00:47;96813.13;;;10.96;68.65
75627;BME280;67372;49.404;11.034;2023-04-01T15:03:22;96808.03;;;10.95;68.84
75627;BME280;67372;49.404;11.034;2023-04-01T15:06:06;96813.13;;;10.96;69.91
75627;BME280;67372;49.404;11.034;2023-04-01T15:12:04;96812.09;;;11.02;67.68
75627;BME280;67372;49.404;11.034;2023-04-01T15:17:20;96812.50;;;11.16;68.04
75627;BME280;67372;49.404;11.034;2023-04-01T15:23:10;96815.50;;;11.25;67.29
75627;BME280;67372;49.404;11.034;2023-04-01T15:31:17;96821.72;;;11.35;67.00
75627;BME280;67372;49.404;11.034;2023-04-01T15:33:59;96844.13;;;11.34;66.72
75627;BME280;67372;49.404;11.034;2023-04-01T15:39:13;96833.44;;;11.02;67.39
75627;BME280;67372;49.404;11.034;2023-04-01T15:42:57;96825.44;;;11.02;66.25
75627;BME280;67372;49.404;11.034;2023-04-01T15:45:08;96836.28;;;10.91;68.13
75627;BME280;67372;49.404;11.034;2023-04-01T15:47:58;96845.13;;;10.96;67.20
75627;BME280;67372;49.404;11.034;2023-04-01T15:50:44;96845.13;;;10.96;67.59
75627;BME280;67372;49.404;11.034;2023-04-01T15:56:52;96851.88;;;11.04;67.17
75627;BME280;67372;49.404;11.034;2023-04-01T15:59:13;96844.66;;;11.04;66.62
75627;BME280;67372;49.404;11.034;2023-04-01T16:01:57;96856.34;;;10.98;66.73
75627;BME280;67372;49.404;11.034;2023-04-01T16:04:46;96849.38;;;10.92;66.41
75627;BME280;67372;49.404;11.034;2023-04-01T16:10:34;96856.09;;;10.73;67.93
75627;BME280;67372;49.404;11.034;2023-04-01T16:24:05;96878.25;;;10.73;67.74
75627;BME280;67372;49.404;11.034;2023-04-01T16:26:50;96872.41;;;10.76;67.64
75627;BME280;67372;49.404;11.034;2023-04-01T16:35:28;96876.28;;;10.42;69.29
75627;BME280;67372;49.404;11.034;2023-04-01T16:38:03;96876.03;;;10.43;68.80
75627;BME280;67372;49.404;11.034;2023-04-01T16:40:42;96877.69;;;10.28;70.20
75627;BME280;67372;49.404;11.034;2023-04-01T16:45:40;96876.03;;;10.22;70.47
75627;BME280;67372;49.404;11.034;2023-04-01T16:50:44;96889.81;;;10.19;70.63
75627;BME280;67372;49.404;11.034;2023-04-01T16:53:42;96884.56;;;10.07;71.02
75627;BME280;67372;49.404;11.034;2023-04-01T16:56:13;96898.44;;;10.09;70.75
75627;BME280;67372;49.404;11.034;2023-04-01T16:58:58;96895.47;;;10.05;70.79
75627;BME280;67372;49.404;11.034;2023-04-01T17:01:31;96892.06;;;10.10;70.55
75627;BME280;67372;49.404;11.034;2023-04-01T17:04:16;96895.97;;;10.02;71.14
75627;BME280;67372;49.404;11.034;2023-04-01T17:07:06;96902.97;;;10.08;70.29
75627;BME280;67372;49.404;11.034;2023-04-01T17:18:59;96918.25;;;9.96;70.93
75627;BME280;67372;49.404;11.034;2023-04-01T17:24:23;96921.00;;;10.01;70.44
75627;BME280;67372;49.404;11.034;2023-04-01T17:30:31;96932.78;;;9.89;71.08
75627;BME280;67372;49.404;11.034;2023-04-01T17:35:40;96937.53;;;9.87;71.02
75627;BME280;67372;49.404;11.034;2023-04-01T17:44:31;96950.53;;;9.83;71.04
75627;BME280;67372;49.404;11.034;2023-04-01T17:47:25;96945.28;;;9.88;70.64
75627;BME280;67372;49.404;11.034;2023-04-01T17:58:40;96962.50;;;9.80;70.71
75627;BME280;67372;49.404;11.034;2023-04-01T18:01:34;96965.63;;;9.77;71.46
75627;BME280;67372;49.404;11.034;2023-04-01T18:04:24;96969.44;;;9.81;71.29
75627;BME280;67372;49.404;11.034;2023-04-01T18:07:08;96968.06;;;9.79;71.08
75627;BME280;67372;49.404;11.034;2023-04-01T18:10:04;96970.66;;;9.74;71.17
75627;BME280;67372;49.404;11.034;2023-04-01T18:13:11;96974.00;;;9.69;71.35
75627;BME280;67372;49.404;11.034;2023-04-01T18:16:11;96980.13;;;9.70;71.65
75627;BME280;67372;49.404;11.034;2023-04-01T18:18:57;96981.66;;;9.66;71.74
75627;BME280;67372;49.404;11.034;2023-04-01T18:21:48;96980.97;;;9.70;71.17
75627;BME280;67372;49.404;11.034;2023-04-01T18:26:50;96985.81;;;9.73;71.58
75627;BME280;67372;49.404;11.034;2023-04-01T18:29:34;96982.44;;;9.78;71.38
75627;BME280;67372;49.404;11.034;2023-04-01T18:32:12;96987.09;;;9.71;72.36
75627;BME280;67372;49.404;11.034;2023-04-01T18:40:34;97002.84;;;9.72;71.98
75627;BME280;67372;49.404;11.034;2023-04-01T18:43:31;97001.13;;;9.66;72.75
75627;BME280;67372;49.404;11.034;2023-04-01T18:48:34;97000.47;;;9.59;71.92
75627;BME280;67372;49.404;11.034;2023-04-01T18:51:14;97002.56;;;9.57;73.13
75627;BME280;67372;49.404;11.034;2023-04-01T18:53:54;96999.66;;;9.59;73.00
75627;BME280;67372;49.404;11.034;2023-04-01T18:56:26;97007.31;;;9.55;73.48
75627;BME280;67372;49.404;11.034;2023-04-01T18:59:01;97012.25;;;9.63;72.51
75627;BME280;67372;49.404;11.034;2023-04-01T19:02:14;97020.00;;;9.65;72.62
75627;BME280;67372;49.404;11.034;2023-04-01T19:04:47;97023.72;;;9.64;72.65
75627;BME280;67372;49.404;11.034;2023-04-01T19:10:11;97025.47;;;9.58;73.14
75627;BME280;67372;49.404;11.034;2023-04-01T19:15:34;97026.44;;;9.52;73.13
75627;BME280;67372;49.404;11.034;2023-04-01T19:18:09;97025.88;;;9.50;72.94
75627;BME280;67372;49.404;11.034;2023-04-01T19:21:00;97031.19;;;9.50;73.26
75627;BME280;67372;49.404;11.034;2023-04-01T19:26:17;97040.56;;;9.52;72.90
75627;BME280;67372;49.404;11.034;2023-04-01T19:28:55;97035.22;;;9.52;72.92
75627;BME280;67372;49.404;11.034;2023-04-01T19:34:40;97040.56;;;9.52;73.36
75627;BME280;67372;49.404;11.034;2023-04-01T19:37:32;97040.72;;;9.63;73.50
75627;BME280;67372;49.404;11.034;2023-04-01T19:42:51;97049.19;;;9.60;72.93
75627;BME280;67372;49.404;11.034;2023-04-01T19:45:34;97050.97;;;9.54;73.48
75627;BME280;67372;49.404;11.034;2023-04-01T19:54:18;97054.03;;;9.63;72.70
75627;BME280;67372;49.404;11.034;2023-04-01T19:56:52;97050.09;;;9.65;72.49
75627;BME280;67372;49.404;11.034;2023-04-01T19:59:35;97056.13;;;9.61;72.93
75627;BME280;67372;49.404;11.034;2023-04-01T20:04:37;97061.47;;;9.61;72.87
75627;BME280;67372;49.404;11.034;2023-04-01T20:09:59;97069.78;;;9.64;74.29
75627;BME280;67372;49.404;11.034;2023-04-01T20:12:47;97078.66;;;9.70;73.24
75627;BME280;67372;49.404;11.034;2023-04-01T20:15:23;97071.59;;;9.75;72.69
75627;BME280;67372;49.404;11.034;2023-04-01T20:17:54;97080.41;;;9.76;72.14
75627;BME280;67372;49.404;11.034;2023-04-01T20:20:27;97082.72;;;9.72;72.01
75627;BME280;67372;49.404;11.034;2023-04-01T20:25:54;97078.09;;;9.68;71.63
75627;BME280;67372;49.404;11.034;2023-04-01T20:28:32;97078.09;;;9.68;72.07
75627;BME280;67372;49.404;11.034;2023-04-01T20:53:12;97091.84;;;9.48;73.74
75627;BME280;67372;49.404;11.034;2023-04-01T21:01:41;97103.41;;;9.42;73.99
75627;BME280;67372;49.404;11.034;2023-04-01T21:04:46;97099.06;;;9.36;74.28
75627;BME280;67372;49.404;11.034;2023-04-01T21:07:20;97111.22;;;9.32;74.28
75627;BME280;67372;49.404;11.034;2023-04-01T21:10:17;97109.59;;;9.31;74.96
75627;BME280;67372;49.404;11.034;2023-04-01T21:12:54;97110.16;;;9.33;74.25
75627;BME280;67372;49.404;11.034;2023-04-01T21:15:42;97115.81;;;9.36;74.04
75627;BME280;67372;49.404;11.034;2023-04-01T21:18:37;97112.69;;;9.39;73.86
75627;BME280;67372;49.404;11.034;2023-04-01T21:27:04;97123.13;;;9.29;74.47
75627;BME280;67372;49.404;11.034;2023-04-01T21:32:57;97131.34;;;9.28;74.82
75627;BME280;67372;49.404;11.034;2023-04-01T21:38:43;97133.66;;;9.36;74.65
75627;BME280;67372;49.404;11.034;2023-04-01T21:50:23;97154.25;;;9.29;74.24
75627;BME280;67372;49.404;11.034;2023-04-01T22:02:07;97158.41;;;9.36;72.97
75627;BME280;67372;49.404;11.034;2023-04-01T22:04:50;97162.81;;;9.31;73.54
75627;BME280;67372;49.404;11.034;2023-04-01T22:07:23;97165.25;;;9.32;73.40
75627;BME280;67372;49.404;11.034;2023-04-01T22:09:52;97164.66;;;9.30;73.88
75627;BME280;67372;49.404;11.034;2023-04-01T22:12:35;97161.41;;;9.40;72.61
75627;BME280;67372;49.404;11.034;2023-04-01T22:17:54;97176.38;;;9.29;72.84
75627;BME280;67372;49.404;11.034;2023-04-01T22:20:38;97177.66;;;9.27;72.86
75627;BME280;67372;49.404;11.034;2023-04-01T22:23:28;97175.31;;;9.30;72.83
75627;BME280;67372;49.404;11.034;2023-04-01T22:26:08;97177.16;;;9.30;72.61
75627;BME280;67372;49.404;11.034;2023-04-01T22:31:23;97183.88;;;9.20;73.26
75627;BME280;67372;49.404;11.034;2023-04-01T22:34:02;97182.63;;;9.23;73.20
75627;BME280;67372;49.404;11.034;2023-04-01T22:36:44;97185.63;;;9.27;73.20
75627;BME280;67372;49.404;11.034;2023-04-01T22:44:57;97195.00;;;9.29;72.19
75627;BME280;67372;49.404;11.034;2023-04-01T22:50:12;97193.94;;;9.30;72.70
75627;BME280;67372;49.404;11.034;2023-04-01T22:52:43;97194.19;;;9.29;72.49
75627;BME280;67372;49.404;11.034;2023-04-01T22:55:22;97201.34;;;9.28;73.30
75627;BME280;67372;49.404;11.034;2023-04-01T22:57:53;97199.16;;;9.25;72.82
75627;BME280;67372;49.404;11.034;2023-04-01T23:00:28;97206.56;;;9.35;73.02
75627;BME280;67372;49.404;11.034;2023-04-01T23:05:28;97204.25;;;9.27;73.85
75627;BME280;67372;49.404;11.034;2023-04-01T23:10:42;97213.50;;;9.24;74.07
75627;BME280;67372;49.404;11.034;2023-04-01T23:13:18;97212.00;;;9.28;73.85
75627;BME280;67372;49.404;11.034;2023-04-01T23:15:47;97219.19;;;9.28;73.07
75627;BME280;67372;49.404;11.034;2023-04-01T23:18:24;97210.63;;;9.26;73.72
75627;BME280;67372;49.404;11.034;2023-04-01T23:21:11;97222.31;;;9.25;73.65
75627;BME280;67372;49.404;11.034;2023-04-01T23:29:01;97233.28;;;9.16;75.06
75627;BME280;67372;49.404;11.034;2023-04-01T23:31:34;97228.06;;;9.21;74.18
75627;BME280;67372;49.404;11.034;2023-04-01T23:36:46;97237.22;;;9.14;75.32
75627;BME280;67372;49.404;11.034;2023-04-01T23:39:34;97236.88;;;9.10;75.26
75627;BME280;67372;49.404;11.034;2023-04-01T23:42:07;97237.69;;;9.11;75.38
75627;BME280;67372;49.404;11.034;2023-04-01T23:44:39;97239.75;;;9.09;75.54
75627;BME280;67372;49.404;11.034;2023-04-01T23:47:08;97242.19;;;9.10;75.54
75627;BME280;67372;49.404;11.034;2023-04-01T23:49:52;97244.28;;;9.08;75.97
75627;BME280;67372;49.404;11.034;2023-04-01T23:52:28;97249.00;;;9.06;76.60
75627;BME280;67372;49.404;11.034;2023-04-01T23:54:59;97259.41;;;9.08;75.45